Alleghany, Virginia
Current Conditions -  °F | °C
As of 5:15 AM on Saturday 25 Oct 2014 (Local Time) from KHSP Reporting Station
Clear Clear  
Wind Chill: 38°   Ceiling: Unl
Heat Index: 43°   Visibility: 10mi
Dew Point: 34°   Wind: 9mph
Humidity: 70%   Direction: 310°NW
Pressure: 30"   Gusts: NA
Location:  37.7731°N, 80.0632°W
Report Text: KHSP 250915Z AUTO 31008KT 10SM CLR 06/01 A3000 RMK AO2 T00630012
Loading
Personal Weather Stations






























Interactive Weather Map
Tropical Storm Tracking
New forecast layout! Learn more

10-Day Weather Forecast

Advertisements
Track Severe Weather on mobile